Stow, Ohio
Current Conditions -  °F | °C
As of 6:54 PM on Monday 22 Dec 2014 (Local Time) from KAKR Reporting Station
Clear Clear  
Wind Chill: 35°   Ceiling: Unl
Heat Index: 39°   Visibility: 9mi
Dew Point: 30°   Wind: 6mph
Humidity: 70%   Direction: NA
Pressure: 29.93"   Gusts: NA
Location:  41.17°N, 81.44°W
Report Text: KAKR 222354Z AUTO VRB05KT 9SM CLR 04/M01 A2993 RMK AO2 SLP143 T00391011 10072 20039 58011
Loading
Personal Weather Stations






























Interactive Weather Map New forecast layout! Learn more

10-Day Weather Forecast

Advertisements
Track Severe Weather on mobile